createdAt,value
2018-07-23T00:02:26.015Z,21.01
2018-07-23T00:04:57.166Z,21.10
2018-07-23T00:07:28.288Z,21.30
2018-07-23T00:09:59.609Z,21.44
2018-07-23T00:12:30.725Z,21.54
2018-07-23T00:15:02.116Z,21.70
2018-07-23T00:17:34.357Z,21.86
2018-07-23T00:20:05.771Z,21.91
2018-07-23T00:22:36.390Z,21.96
2018-07-23T00:25:07.562Z,21.97
2018-07-23T00:27:38.627Z,22.03
2018-07-23T00:30:09.629Z,22.04
2018-07-23T00:32:40.687Z,22.26
2018-07-23T00:35:12.372Z,22.37
2018-07-23T00:37:44.134Z,22.49
2018-07-23T00:40:15.486Z,22.46
2018-07-23T00:42:46.797Z,22.33
2018-07-23T00:45:18.479Z,22.40
2018-07-23T00:47:49.917Z,22.37
2018-07-23T00:50:20.925Z,22.25
2018-07-23T00:52:50.989Z,22.15
2018-07-23T00:55:22.700Z,22.06
2018-07-23T00:57:52.956Z,21.92
2018-07-23T01:00:23.342Z,21.68
2018-07-23T01:02:55.355Z,21.58
2018-07-23T01:05:26.157Z,21.49
2018-07-23T01:07:57.215Z,21.28
2018-07-23T01:10:28.598Z,21.16
2018-07-23T01:12:58.911Z,21.14
2018-07-23T01:15:30.232Z,21.04
2018-07-23T01:18:01.061Z,21.05
2018-07-23T01:20:32.164Z,21.05
2018-07-23T01:23:03.394Z,21.04
2018-07-23T01:25:34.421Z,20.93
2018-07-23T01:28:05.708Z,20.93
2018-07-23T01:30:37.205Z,21.01
2018-07-23T01:33:07.441Z,20.98
2018-07-23T01:35:38.307Z,21.03
2018-07-23T01:39:12.785Z,20.95
2018-07-23T01:41:43.880Z,20.78
2018-07-23T01:44:14.935Z,20.82
2018-07-23T01:46:45.760Z,20.85
2018-07-23T01:49:17.220Z,20.93
2018-07-23T01:51:48.448Z,21.11
2018-07-23T01:54:20.138Z,21.11
2018-07-23T01:56:51.955Z,21.24
2018-07-23T01:59:22.767Z,21.38
2018-07-23T02:01:53.841Z,21.27
2018-07-23T02:04:25.804Z,21.12
2018-07-23T02:06:56.959Z,20.83
2018-07-23T02:09:28.569Z,20.57
2018-07-23T02:11:59.632Z,20.35
2018-07-23T02:14:30.801Z,20.18
2018-07-23T02:17:02.044Z,20.09
2018-07-23T02:19:33.169Z,19.84
2018-07-23T02:22:04.355Z,20.00
2018-07-23T02:24:34.842Z,19.75
2018-07-23T02:27:06.356Z,19.60
2018-07-23T02:29:37.326Z,19.71
2018-07-23T02:32:08.846Z,19.75
2018-07-23T02:34:40.056Z,19.71
2018-07-23T02:37:11.321Z,19.60
2018-07-23T02:39:42.760Z,19.55
2018-07-23T02:42:13.466Z,19.60
2018-07-23T02:44:44.975Z,19.66
2018-07-23T02:47:15.961Z,19.62
2018-07-23T02:49:46.882Z,19.69
2018-07-23T02:52:17.918Z,19.77
2018-07-23T02:54:48.445Z,19.86
2018-07-23T02:57:20.047Z,19.83
2018-07-23T02:59:51.552Z,19.86
2018-07-23T03:02:22.655Z,19.85
2018-07-23T03:04:53.934Z,19.99
2018-07-23T03:07:25.349Z,19.95
2018-07-23T03:09:56.864Z,19.95
2018-07-23T03:12:27.780Z,19.78
2018-07-23T03:14:59.073Z,19.69
2018-07-23T03:17:30.373Z,19.71
2018-07-23T03:20:01.501Z,19.69
2018-07-23T03:22:32.645Z,19.75
2018-07-23T03:25:04.153Z,19.86
2018-07-23T03:27:35.047Z,19.78
2018-07-23T03:30:06.010Z,19.97
2018-07-23T03:32:37.285Z,20.17
2018-07-23T03:35:08.750Z,20.13
2018-07-23T03:37:40.130Z,20.16
2018-07-23T03:40:10.997Z,20.09
2018-07-23T03:42:42.328Z,20.12
2018-07-23T03:45:13.273Z,20.14
2018-07-23T03:47:44.696Z,20.13
2018-07-23T03:50:16.080Z,20.22
2018-07-23T03:52:47.866Z,20.20
2018-07-23T03:55:20.392Z,20.18
2018-07-23T03:57:52.155Z,20.24
2018-07-23T04:00:23.463Z,20.43
2018-07-23T04:02:54.080Z,20.62
2018-07-23T04:05:25.012Z,20.61
2018-07-23T04:07:55.874Z,20.77
2018-07-23T04:10:27.534Z,20.84
2018-07-23T04:12:59.295Z,20.98
2018-07-23T04:15:31.325Z,21.33
2018-07-23T04:18:03.904Z,21.48
2018-07-23T04:20:36.256Z,21.72
2018-07-23T04:23:07.632Z,21.98
2018-07-23T04:25:38.746Z,22.29
2018-07-23T04:28:09.905Z,22.46
2018-07-23T04:30:41.247Z,22.71
2018-07-23T04:33:12.041Z,22.68
2018-07-23T04:35:42.995Z,22.83
2018-07-23T04:38:14.082Z,22.81
2018-07-23T04:40:45.189Z,22.90
2018-07-23T04:43:16.968Z,23.22
2018-07-23T04:45:47.659Z,23.52
2018-07-23T04:48:18.739Z,23.76
2018-07-23T04:50:49.902Z,23.93
2018-07-23T04:53:20.982Z,24.05
2018-07-23T04:55:52.850Z,24.18
2018-07-23T04:58:24.124Z,24.34
2018-07-23T05:00:55.580Z,24.52
2018-07-23T05:03:26.716Z,24.44
2018-07-23T05:05:58.364Z,24.44
2018-07-23T05:08:29.662Z,24.42
2018-07-23T05:11:01.347Z,24.37
2018-07-23T05:13:32.652Z,24.17
2018-07-23T05:16:04.010Z,24.17
2018-07-23T05:18:35.388Z,24.07
2018-07-23T05:21:06.960Z,24.10
2018-07-23T05:23:38.358Z,24.28
2018-07-23T05:26:09.888Z,24.40
2018-07-23T05:28:41.135Z,24.35
2018-07-23T05:31:12.524Z,24.22
2018-07-23T05:33:43.514Z,24.44
2018-07-23T05:36:14.671Z,24.61
2018-07-23T05:38:46.265Z,24.62
2018-07-23T05:41:17.536Z,24.74
2018-07-23T05:43:48.753Z,24.85
2018-07-23T05:46:19.753Z,24.85
2018-07-23T05:48:50.046Z,24.96
2018-07-23T05:51:21.339Z,25.09
2018-07-23T05:53:53.220Z,25.28
2018-07-23T05:56:24.553Z,25.48
2018-07-23T05:58:56.608Z,25.71
2018-07-23T06:01:28.032Z,25.76
2018-07-23T06:03:59.226Z,25.95
2018-07-23T06:06:29.864Z,26.14
2018-07-23T06:09:01.451Z,26.09
2018-07-23T06:11:33.145Z,26.25
2018-07-23T06:14:04.135Z,26.24
2018-07-23T06:16:35.275Z,26.43
2018-07-23T06:19:06.586Z,26.50
2018-07-23T06:21:38.218Z,26.47
2018-07-23T06:24:09.820Z,26.56
2018-07-23T06:26:41.121Z,26.67
2018-07-23T06:29:12.473Z,26.64
2018-07-23T06:31:43.445Z,26.82
2018-07-23T06:34:14.757Z,27.04
2018-07-23T06:36:46.163Z,27.30
2018-07-23T06:39:17.489Z,27.35
2018-07-23T06:41:48.778Z,27.31
2018-07-23T06:44:20.323Z,27.35
2018-07-23T06:46:51.661Z,27.47
2018-07-23T06:49:22.679Z,27.42
2018-07-23T06:51:53.679Z,27.66
2018-07-23T06:54:25.010Z,27.60
2018-07-23T06:56:56.490Z,27.84
2018-07-23T06:59:27.681Z,27.74
2018-07-23T07:01:58.899Z,27.83
2018-07-23T07:04:30.286Z,28.10
2018-07-23T07:07:01.508Z,28.20
2018-07-23T07:09:32.502Z,28.30
2018-07-23T07:12:03.032Z,28.62
2018-07-23T07:14:34.604Z,28.44
2018-07-23T07:17:06.340Z,28.46
2018-07-23T07:19:37.552Z,28.42
2018-07-23T07:22:09.201Z,28.76
2018-07-23T07:24:40.005Z,29.03
2018-07-23T07:27:11.508Z,28.91
2018-07-23T07:29:42.667Z,28.76
2018-07-23T07:32:13.753Z,28.89
2018-07-23T07:34:44.986Z,29.15
2018-07-23T07:37:16.333Z,29.06
2018-07-23T07:39:47.027Z,29.32
2018-07-23T07:42:18.612Z,29.42
2018-07-23T07:44:49.354Z,29.62
2018-07-23T07:47:20.652Z,29.77
2018-07-23T07:49:52.119Z,30.13
2018-07-23T07:52:22.843Z,30.25
2018-07-23T07:54:53.436Z,30.35
2018-07-23T07:57:24.279Z,30.45
2018-07-23T07:59:55.529Z,30.33
2018-07-23T08:02:26.951Z,30.50
2018-07-23T08:04:58.258Z,30.66
2018-07-23T08:07:29.405Z,30.52
2018-07-23T08:10:00.564Z,30.95
2018-07-23T08:12:31.485Z,31.43
2018-07-23T08:15:02.937Z,31.27
2018-07-23T08:17:34.748Z,31.01
2018-07-23T08:20:06.290Z,31.42
2018-07-23T08:22:37.438Z,31.11
2018-07-23T08:25:08.906Z,31.13
2018-07-23T08:27:40.221Z,31.19
2018-07-23T08:30:11.600Z,31.40
2018-07-23T08:32:42.731Z,31.57
2018-07-23T08:35:13.883Z,31.67
2018-07-23T08:37:45.537Z,32.24
2018-07-23T08:40:16.887Z,32.96
2018-07-23T08:42:48.050Z,33.12
2018-07-23T08:45:20.068Z,32.50
2018-07-23T08:47:50.595Z,32.48
2018-07-23T08:50:22.225Z,32.49
2018-07-23T08:52:53.420Z,32.10
2018-07-23T08:55:24.355Z,32.64
2018-07-23T08:57:55.497Z,32.97
2018-07-23T09:00:25.824Z,33.35
2018-07-23T09:02:57.507Z,33.60
2018-07-23T09:05:28.675Z,33.64
2018-07-23T09:07:59.314Z,33.06
2018-07-23T09:10:31.074Z,34.07
2018-07-23T09:13:02.270Z,34.80
2018-07-23T09:15:34.136Z,34.07
2018-07-23T09:18:05.438Z,35.00
2018-07-23T09:20:36.873Z,35.02
2018-07-23T09:23:08.242Z,35.32
2018-07-23T09:25:44.519Z,35.75
2018-07-23T09:28:16.560Z,35.51
2018-07-23T09:30:52.829Z,35.51
2018-07-23T09:33:25.334Z,35.81
2018-07-23T09:35:56.591Z,35.75
2018-07-23T09:38:27.555Z,35.87
2018-07-23T09:40:58.563Z,36.22
2018-07-23T09:43:29.887Z,36.16
2018-07-23T09:46:01.093Z,36.25
2018-07-23T09:48:32.567Z,36.62
2018-07-23T09:51:04.987Z,36.45
2018-07-23T09:53:36.139Z,35.82
2018-07-23T09:56:08.104Z,35.52
2018-07-23T09:58:39.248Z,35.07
2018-07-23T10:01:12.060Z,35.18
2018-07-23T10:03:43.211Z,35.60
2018-07-23T10:06:14.181Z,36.43
2018-07-23T10:08:45.309Z,36.98
2018-07-23T10:11:16.455Z,37.19
2018-07-23T10:13:47.275Z,36.70
2018-07-23T10:16:19.375Z,37.03
2018-07-23T10:18:49.837Z,37.23
2018-07-23T10:21:21.370Z,37.45
2018-07-23T10:23:52.913Z,37.35
2018-07-23T10:26:25.053Z,36.66
2018-07-23T10:28:56.445Z,36.86
2018-07-23T10:31:27.695Z,37.20
2018-07-23T10:33:59.190Z,37.44
2018-07-23T10:36:30.446Z,37.47
2018-07-23T10:39:02.116Z,37.07
2018-07-23T10:41:33.501Z,36.85
2018-07-23T10:44:05.453Z,37.54
2018-07-23T10:46:36.540Z,37.62
2018-07-23T10:49:07.973Z,38.18
2018-07-23T10:51:38.978Z,38.41
2018-07-23T10:54:10.574Z,37.72
2018-07-23T10:56:41.753Z,37.45
2018-07-23T10:59:12.571Z,38.03
2018-07-23T11:01:44.094Z,37.91
2018-07-23T11:04:15.133Z,37.58
2018-07-23T11:06:46.485Z,37.45
2018-07-23T11:09:17.848Z,37.87
2018-07-23T11:11:48.572Z,37.42
2018-07-23T11:14:19.504Z,37.34
2018-07-23T11:16:50.632Z,37.53
2018-07-23T11:19:21.991Z,37.39
2018-07-23T11:21:53.329Z,37.05
2018-07-23T11:24:25.206Z,36.95
2018-07-23T11:26:56.477Z,36.25
2018-07-23T11:29:28.179Z,35.65
2018-07-23T11:31:59.065Z,35.87
2018-07-23T11:34:30.724Z,35.28
2018-07-23T11:37:02.045Z,35.10
2018-07-23T11:39:33.405Z,34.80
2018-07-23T11:42:04.440Z,34.05
2018-07-23T11:44:35.111Z,33.26
2018-07-23T11:47:06.311Z,32.69
2018-07-23T11:49:37.822Z,31.92
2018-07-23T11:52:14.360Z,32.06
2018-07-23T11:54:40.917Z,31.79
2018-07-23T11:57:12.750Z,31.72
2018-07-23T11:59:44.030Z,31.46
2018-07-23T12:02:16.151Z,31.50
2018-07-23T12:04:48.106Z,31.24
2018-07-23T12:07:19.389Z,31.75
2018-07-23T12:09:50.476Z,31.74
2018-07-23T12:12:22.211Z,31.72
2018-07-23T12:14:53.701Z,31.33
2018-07-23T12:17:25.347Z,30.93
2018-07-23T12:19:56.557Z,30.90
2018-07-23T12:22:27.821Z,31.00
2018-07-23T12:24:58.711Z,30.98
2018-07-23T12:27:30.020Z,31.24
2018-07-23T12:30:00.969Z,31.44
2018-07-23T12:32:32.826Z,31.49
2018-07-23T12:35:04.122Z,31.82
2018-07-23T12:37:35.448Z,32.18
2018-07-23T12:40:06.712Z,32.59
2018-07-23T12:42:37.921Z,33.46
2018-07-23T12:45:09.512Z,34.17
2018-07-23T12:47:40.546Z,34.05
2018-07-23T12:50:11.288Z,34.73
2018-07-23T12:52:42.814Z,34.75
2018-07-23T12:55:14.119Z,34.94
2018-07-23T12:57:45.396Z,34.94
2018-07-23T13:00:16.668Z,34.70
2018-07-23T13:02:47.769Z,34.06
2018-07-23T13:05:19.611Z,33.05
2018-07-23T13:07:50.257Z,32.37
2018-07-23T13:10:21.328Z,32.04
2018-07-23T13:12:51.627Z,31.75
2018-07-23T13:15:23.594Z,31.48
2018-07-23T13:17:55.180Z,31.55
2018-07-23T13:20:27.184Z,32.09
2018-07-23T13:22:59.163Z,32.72
2018-07-23T13:25:30.958Z,32.69
2018-07-23T13:28:03.053Z,32.32
2018-07-23T13:30:35.120Z,31.89
2018-07-23T13:33:06.526Z,31.37
2018-07-23T13:35:37.854Z,31.18
2018-07-23T13:38:08.878Z,30.85
2018-07-23T13:40:40.777Z,30.68
2018-07-23T13:45:46.558Z,30.02
2018-07-23T13:48:18.702Z,29.95
2018-07-23T14:02:46.080Z,28.45
2018-07-23T14:05:17.473Z,27.86
2018-07-23T14:07:48.902Z,27.51
2018-07-23T14:10:20.413Z,27.11
2018-07-23T14:12:51.738Z,26.67
2018-07-23T14:15:22.814Z,26.23
2018-07-23T14:17:54.855Z,25.69
2018-07-23T14:20:26.257Z,25.34
2018-07-23T14:22:57.162Z,24.97
2018-07-23T14:25:28.583Z,24.40
2018-07-23T14:27:59.958Z,23.97
2018-07-23T14:30:31.934Z,23.70
2018-07-23T14:33:03.288Z,23.50
2018-07-23T14:35:34.539Z,23.42
2018-07-23T14:38:06.176Z,23.32
2018-07-23T14:40:37.837Z,23.44
2018-07-23T14:43:09.173Z,23.80
2018-07-23T14:45:40.213Z,24.28
2018-07-23T14:48:11.111Z,24.67
2018-07-23T14:50:42.496Z,24.72
2018-07-23T14:53:13.568Z,24.65
2018-07-23T14:55:45.574Z,24.65
2018-07-23T14:58:17.230Z,24.68
2018-07-23T15:00:48.704Z,24.37
2018-07-23T15:03:19.851Z,24.27
2018-07-23T15:05:51.196Z,24.35
2018-07-23T15:08:22.441Z,24.46
2018-07-23T15:10:53.306Z,24.48
2018-07-23T15:13:24.585Z,24.64
2018-07-23T15:15:55.371Z,24.70
2018-07-23T15:18:26.617Z,24.67
2018-07-23T15:20:57.762Z,24.71
2018-07-23T15:23:29.171Z,24.80
2018-07-23T15:26:00.551Z,25.03
2018-07-23T15:28:31.689Z,25.25
2018-07-23T15:31:02.776Z,25.40
2018-07-23T15:33:33.999Z,25.36
2018-07-23T15:36:05.164Z,25.29
2018-07-23T15:38:36.131Z,25.56
2018-07-23T15:41:07.388Z,25.60
2018-07-23T15:43:38.269Z,25.67
2018-07-23T15:46:09.858Z,25.73
2018-07-23T15:48:41.419Z,25.99
2018-07-23T15:51:12.882Z,26.19
2018-07-23T15:53:44.140Z,26.21
2018-07-23T15:56:15.552Z,26.30
2018-07-23T15:58:47.101Z,26.57
2018-07-23T16:01:17.993Z,26.65
2018-07-23T16:03:49.469Z,27.02
2018-07-23T16:06:20.481Z,27.23
2018-07-23T16:08:52.211Z,27.47
2018-07-23T16:11:23.665Z,27.58
2018-07-23T16:13:55.247Z,27.60
2018-07-23T16:16:26.494Z,27.62
2018-07-23T16:18:56.935Z,27.48
2018-07-23T16:21:28.594Z,27.52
2018-07-23T16:23:59.761Z,27.49
2018-07-23T16:26:31.343Z,27.53
2018-07-23T16:29:02.458Z,27.53
2018-07-23T16:31:33.719Z,27.57
2018-07-23T16:34:05.122Z,27.43
2018-07-23T16:36:36.440Z,27.32
2018-07-23T16:39:10.814Z,27.27
2018-07-23T16:41:42.652Z,27.14
2018-07-23T16:44:14.077Z,26.95
2018-07-23T16:46:45.748Z,26.81
2018-07-23T16:49:16.863Z,26.92
2018-07-23T16:51:46.871Z,26.59
2018-07-23T16:54:17.300Z,26.43
2018-07-23T16:56:47.496Z,26.27
2018-07-23T16:59:17.762Z,26.38
2018-07-23T17:01:47.973Z,26.17
2018-07-23T17:04:18.403Z,25.89
2018-07-23T17:06:48.713Z,25.70
2018-07-23T17:09:19.787Z,25.78
2018-07-23T17:11:50.784Z,25.72
2018-07-23T17:14:22.889Z,25.60
2018-07-23T17:16:54.317Z,25.63
2018-07-23T17:19:25.610Z,25.38
2018-07-23T17:21:56.222Z,25.34
2018-07-23T17:24:26.894Z,25.36
2018-07-23T17:26:57.800Z,25.27
2018-07-23T17:29:28.940Z,25.15
2018-07-23T17:32:00.265Z,24.92
2018-07-23T17:34:31.478Z,24.89
2018-07-23T17:37:01.915Z,24.95
2018-07-23T17:39:32.721Z,25.07
2018-07-23T17:42:03.704Z,25.08
2018-07-23T17:44:34.671Z,25.08
2018-07-23T17:47:05.864Z,25.11
2018-07-23T17:49:37.046Z,24.87
2018-07-23T17:52:08.601Z,24.72
2018-07-23T17:54:40.226Z,24.50
2018-07-23T17:57:11.291Z,24.47
2018-07-23T17:59:42.274Z,24.47
2018-07-23T18:02:13.640Z,24.29
2018-07-23T18:04:44.769Z,24.07
2018-07-23T18:07:15.621Z,24.03
2018-07-23T18:09:46.865Z,23.97
2018-07-23T18:12:17.899Z,23.76
2018-07-23T18:14:49.575Z,23.72
2018-07-23T18:17:20.808Z,23.86
2018-07-23T18:19:52.683Z,23.75
2018-07-23T18:22:24.142Z,23.73
2018-07-23T18:24:56.298Z,23.59
2018-07-23T18:27:26.952Z,23.43
2018-07-23T18:29:58.592Z,23.60
2018-07-23T18:32:30.175Z,23.73
2018-07-23T18:35:01.346Z,23.74
2018-07-23T18:37:32.607Z,23.70
2018-07-23T18:40:04.451Z,23.56
2018-07-23T18:42:36.224Z,23.28
2018-07-23T18:45:08.176Z,22.88
2018-07-23T18:47:39.043Z,22.52
2018-07-23T18:50:10.521Z,22.54
2018-07-23T18:52:41.974Z,22.63
2018-07-23T18:55:13.392Z,22.54
2018-07-23T18:57:44.654Z,22.48
2018-07-23T19:00:15.709Z,22.35
2018-07-23T19:02:46.881Z,22.37
2018-07-23T19:05:18.728Z,22.23
2018-07-23T19:07:49.552Z,22.35
2018-07-23T19:10:21.012Z,22.46
2018-07-23T19:12:51.865Z,22.53
2018-07-23T19:15:23.416Z,22.63
2018-07-23T19:17:55.367Z,22.73
2018-07-23T19:20:28.002Z,22.73
2018-07-23T19:22:59.647Z,22.69
2018-07-23T19:25:30.991Z,22.84
2018-07-23T19:28:02.197Z,22.89
2018-07-23T19:30:33.772Z,22.81
2018-07-23T19:33:04.765Z,22.84
2018-07-23T19:35:36.262Z,22.62
2018-07-23T19:38:08.212Z,22.26
2018-07-23T19:40:39.880Z,21.95
2018-07-23T19:43:10.789Z,21.84
2018-07-23T19:45:42.484Z,21.76
2018-07-23T19:48:13.955Z,21.73
2018-07-23T19:50:45.507Z,21.66
2018-07-23T19:53:16.709Z,21.78
2018-07-23T19:55:48.355Z,21.82
2018-07-23T19:58:19.365Z,21.86
2018-07-23T20:00:50.412Z,21.97
2018-07-23T20:03:21.688Z,22.07
2018-07-23T20:05:53.332Z,22.22
2018-07-23T20:08:24.373Z,22.45
2018-07-23T20:10:55.529Z,22.70
2018-07-23T20:13:28.113Z,22.73
2018-07-23T20:15:58.850Z,22.67
2018-07-23T20:18:30.282Z,22.54
2018-07-23T20:21:00.909Z,22.47
2018-07-23T20:23:32.294Z,22.27
2018-07-23T20:26:03.235Z,22.11
2018-07-23T20:28:34.802Z,22.09
2018-07-23T20:31:06.556Z,22.39
2018-07-23T20:33:38.039Z,22.32
2018-07-23T20:36:09.392Z,22.42
2018-07-23T20:38:40.719Z,22.51
2018-07-23T20:41:12.143Z,22.44
2018-07-23T20:43:43.370Z,22.38
2018-07-23T20:46:14.834Z,22.19
2018-07-23T20:48:45.710Z,22.08
2018-07-23T20:51:16.746Z,21.97
2018-07-23T20:53:48.121Z,21.85
2018-07-23T20:56:19.539Z,21.78
2018-07-23T20:58:50.943Z,21.61
2018-07-23T21:01:22.329Z,21.55
2018-07-23T21:03:53.402Z,21.44
2018-07-23T21:06:24.567Z,21.38
2018-07-23T21:08:56.097Z,21.56
2018-07-23T21:11:27.900Z,21.57
2018-07-23T21:13:58.194Z,21.63
2018-07-23T21:16:29.541Z,21.69
2018-07-23T21:19:00.731Z,21.69
2018-07-23T21:21:31.975Z,21.75
2018-07-23T21:24:03.491Z,21.88
2018-07-23T21:26:34.785Z,21.84
2018-07-23T21:29:06.110Z,21.82
2018-07-23T21:31:37.460Z,21.85
2018-07-23T21:34:08.644Z,21.87
2018-07-23T21:36:39.026Z,21.98
2018-07-23T21:39:11.034Z,22.11
2018-07-23T21:41:42.521Z,22.11
2018-07-23T21:44:13.432Z,22.01
2018-07-23T21:46:44.619Z,21.95
2018-07-23T21:49:16.061Z,21.97
2018-07-23T21:51:47.589Z,22.03
2018-07-23T21:54:18.787Z,22.04
2018-07-23T21:56:50.265Z,21.97
2018-07-23T21:59:22.505Z,21.85
2018-07-23T22:01:54.353Z,21.64
2018-07-23T22:04:25.879Z,21.78
2018-07-23T22:06:57.221Z,21.84
2018-07-23T22:09:28.668Z,21.91
2018-07-23T22:11:59.694Z,21.88
2018-07-23T22:14:30.960Z,21.90
2018-07-23T22:17:02.619Z,22.01
2018-07-23T22:19:33.723Z,22.10
2018-07-23T22:22:05.252Z,22.07
2018-07-23T22:24:36.265Z,22.16
2018-07-23T22:27:07.774Z,22.20
2018-07-23T22:29:39.235Z,22.21
2018-07-23T22:32:09.933Z,22.11
2018-07-23T22:34:41.896Z,22.08
2018-07-23T22:37:13.357Z,21.97
2018-07-23T22:39:45.073Z,21.95
2018-07-23T22:42:16.681Z,21.87
2018-07-23T22:44:50.698Z,21.87
2018-07-23T22:47:22.335Z,21.81
2018-07-23T22:49:53.226Z,21.87
2018-07-23T22:52:24.490Z,21.84
2018-07-23T22:54:56.083Z,21.73
2018-07-23T22:57:27.225Z,21.75
2018-07-23T22:59:58.510Z,21.83
2018-07-23T23:02:30.460Z,21.68
2018-07-23T23:05:02.034Z,21.70
2018-07-23T23:07:33.259Z,21.63
2018-07-23T23:10:04.504Z,21.55
2018-07-23T23:12:35.908Z,21.53
2018-07-23T23:15:07.277Z,21.61
2018-07-23T23:17:38.445Z,21.56
2018-07-23T23:20:09.819Z,21.55
2018-07-23T23:22:40.785Z,21.58
2018-07-23T23:25:12.242Z,21.56
2018-07-23T23:27:43.130Z,21.55
2018-07-23T23:30:14.358Z,21.41
2018-07-23T23:32:46.135Z,21.37
2018-07-23T23:35:17.272Z,21.31
2018-07-23T23:37:48.390Z,21.26
2018-07-23T23:40:19.707Z,21.33
2018-07-23T23:42:51.015Z,21.40
2018-07-23T23:45:22.401Z,21.38
2018-07-23T23:47:53.418Z,21.48
2018-07-23T23:50:24.791Z,21.44
2018-07-23T23:52:56.278Z,21.42
2018-07-23T23:55:26.860Z,21.45
2018-07-23T23:57:57.345Z,21.49
